Time;durP1;ratioP1;P1;durP2;ratioP2;P2;SDS_P1;SDS_P2;PMS_P1;PMS_P2;Temp;Humidity;BMP_temperature;BMP_pressure;BME280_temperature;BME280_humidity;BME280_pressure;Samples;Min_cycle;Max_cycle;Signal;HPM_P1;HPM_P2
2023/04/10 00:01:55;;;;;;;1.38;1.27;;;;;;;22.63;43.79;101302.72;4532307;28;20529;-59
2023/04/10 00:04:06;;;;;;;1.30;1.10;;;;;;;22.65;44.19;101303.16;4534098;28;20037;-59
2023/04/10 00:06:16;;;;;;;1.40;1.20;;;;;;;22.62;44.13;101298.16;4533211;28;20029;-60
2023/04/10 00:08:26;;;;;;;2.30;1.40;;;;;;;22.49;43.53;101276.31;4516308;28;20046;-59
2023/04/10 00:10:37;;;;;;;1.38;1.17;;;;;;;22.61;44.00;101294.41;4533998;28;20045;-59
2023/04/10 00:12:47;;;;;;;1.52;1.20;;;;;;;22.64;43.63;101292.88;4533541;28;20758;-59
2023/04/10 00:14:58;;;;;;;3.38;1.23;;;;;;;22.64;43.51;101295.75;4530346;28;20033;-59
2023/04/10 00:17:08;;;;;;;1.60;1.20;;;;;;;22.63;43.70;101288.34;4532961;28;20195;-59
2023/04/10 00:19:19;;;;;;;1.58;1.30;;;;;;;22.62;43.87;101283.75;4534463;28;20838;-59
2023/04/10 00:21:30;;;;;;;2.10;1.30;;;;;;;22.61;43.74;101287.84;4532486;28;20037;-59
2023/04/10 00:23:40;;;;;;;1.33;1.05;;;;;;;22.62;43.78;101289.50;4534362;28;21196;-60
2023/04/10 00:25:51;;;;;;;1.35;1.25;;;;;;;22.41;43.61;101252.25;4532721;28;20021;-60
2023/04/10 00:28:01;;;;;;;1.50;1.15;;;;;;;22.59;43.87;101288.22;4515951;28;20041;-59
2023/04/10 00:30:11;;;;;;;2.22;1.10;;;;;;;22.55;43.71;101272.06;4534991;28;20046;-59
2023/04/10 00:32:22;;;;;;;1.73;1.20;;;;;;;22.61;43.69;101284.97;4507778;28;20041;-59
2023/04/10 00:34:33;;;;;;;2.53;1.30;;;;;;;22.58;43.52;101275.00;4532210;28;20064;-59
2023/04/10 00:36:45;;;;;;;2.22;1.38;;;;;;;22.54;43.44;101258.84;4519050;28;20041;-59
2023/04/10 00:38:56;;;;;;;1.70;1.20;;;;;;;22.59;43.64;101272.97;4530832;28;20035;-59
2023/04/10 00:41:06;;;;;;;2.00;1.30;;;;;;;22.57;43.82;101266.75;4533925;28;20037;-60
2023/04/10 00:43:19;;;;;;;1.75;1.30;;;;;;;22.51;43.67;101250.91;4533113;28;20033;-59
2023/04/10 00:45:29;;;;;;;1.30;1.05;;;;;;;22.55;43.49;101244.09;4515874;28;20046;-59
2023/04/10 00:47:40;;;;;;;2.03;1.13;;;;;;;22.57;43.44;101253.22;4532813;28;20588;-60
2023/04/10 00:49:51;;;;;;;1.42;1.13;;;;;;;22.57;43.66;101253.22;4533927;28;20340;-60
2023/04/10 00:52:01;;;;;;;1.65;1.30;;;;;;;22.58;43.64;101252.00;4532254;28;20028;-59
2023/04/10 00:54:12;;;;;;;1.98;1.38;;;;;;;22.59;43.55;101261.47;4531684;28;20590;-60
2023/04/10 00:56:23;;;;;;;1.30;1.13;;;;;;;22.41;43.66;101229.25;4517343;28;20033;-60
2023/04/10 00:58:34;;;;;;;1.50;1.35;;;;;;;22.43;43.31;101231.75;4531984;28;20037;-60
2023/04/10 01:00:46;;;;;;;1.67;1.20;;;;;;;22.56;43.33;101253.56;4532109;28;20036;-60
2023/04/10 01:02:59;;;;;;;1.27;1.10;;;;;;;22.55;43.59;101249.84;4530120;28;20029;-60
2023/04/10 01:05:12;;;;;;;1.30;1.20;;;;;;;22.53;43.79;101245.69;4532195;28;20049;-60
2023/04/10 01:07:35;;;;;;;1.17;1.00;;;;;;;22.55;43.54;101249.03;4532303;28;20080;-60
2023/04/10 01:10:21;;;;;;;1.45;1.27;;;;;;;22.57;43.30;101246.59;4523275;28;20029;-61
2023/04/10 01:13:04;;;;;;;2.03;1.30;;;;;;;22.55;43.42;101243.28;4532689;28;20146;-63
2023/04/10 01:15:17;;;;;;;2.00;1.40;;;;;;;22.55;43.41;101249.03;4534496;28;20037;-61
2023/04/10 01:17:44;;;;;;;1.27;1.13;;;;;;;22.53;43.53;101245.69;4532140;28;20064;-61
2023/04/10 01:20:08;;;;;;;1.40;1.05;;;;;;;22.52;43.61;101241.09;4530982;28;20577;-60
2023/04/10 01:22:25;;;;;;;1.33;1.23;;;;;;;22.54;43.36;101247.34;4531903;28;20136;-58
2023/04/10 01:25:12;;;;;;;1.40;1.30;;;;;;;22.50;43.55;101235.69;4530609;28;20185;-60
2023/04/10 01:27:44;;;;;;;1.23;1.13;;;;;;;22.51;43.26;101245.16;4531140;28;20033;-60
2023/04/10 01:29:58;;;;;;;1.33;1.10;;;;;;;22.47;43.55;101244.22;4530901;28;20037;-60
2023/04/10 01:32:16;;;;;;;1.98;1.20;;;;;;;22.53;43.70;101258.03;4531330;28;20132;-59
2023/04/10 01:34:34;;;;;;;1.10;0.95;;;;;;;22.52;43.44;101255.50;4506677;28;20571;-59
2023/04/10 01:36:55;;;;;;;2.05;1.38;;;;;;;22.45;43.41;101238.00;4531794;28;20659;-59
2023/04/10 01:39:07;;;;;;;1.70;1.10;;;;;;;22.48;43.63;101241.00;4531532;28;20028;-60
2023/04/10 01:41:18;;;;;;;1.60;1.30;;;;;;;22.49;43.40;101245.53;4532070;28;20037;-59
2023/04/10 01:43:32;;;;;;;1.95;1.30;;;;;;;22.50;43.39;101243.50;4531418;28;20742;-60
2023/04/10 01:45:45;;;;;;;1.48;1.20;;;;;;;22.49;43.23;101248.41;4533622;28;20067;-59
2023/04/10 01:47:56;;;;;;;1.50;1.35;;;;;;;22.49;43.59;101250.44;4512584;28;20040;-59
2023/04/10 01:50:08;;;;;;;1.75;1.40;;;;;;;22.50;43.76;101250.06;4515664;28;20357;-60
2023/04/10 01:52:21;;;;;;;1.30;1.20;;;;;;;22.51;43.30;101250.91;4530457;28;20029;-58
2023/04/10 01:54:37;;;;;;;1.45;1.20;;;;;;;22.49;43.34;101233.16;4530801;28;20029;-59
2023/04/10 01:56:48;;;;;;;2.47;1.20;;;;;;;22.46;43.21;101231.03;4505630;28;20521;-59
2023/04/10 01:59:02;;;;;;;1.48;1.20;;;;;;;22.48;43.40;101241.00;4517575;28;20037;-58
2023/04/10 02:01:20;;;;;;;1.30;1.20;;;;;;;22.47;43.29;101227.78;4529119;28;20560;-58
2023/04/10 02:03:31;;;;;;;1.25;1.15;;;;;;;22.47;43.50;101235.59;4532166;28;20330;-59
2023/04/10 02:05:55;;;;;;;1.50;1.20;;;;;;;22.48;43.56;101243.03;4531730;28;20030;-59
2023/04/10 02:08:23;;;;;;;1.55;1.30;;;;;;;22.48;43.50;101229.47;4519551;28;20132;-58
2023/04/10 02:10:50;;;;;;;1.25;1.15;;;;;;;22.47;43.17;101229.84;4531809;28;20513;-59
2023/04/10 02:13:06;;;;;;;1.52;1.20;;;;;;;22.37;43.42;101210.22;4533291;28;20551;-59
2023/04/10 02:15:20;;;;;;;1.88;1.20;;;;;;;22.46;43.18;101217.50;4532973;28;20107;-59
2023/04/10 02:17:33;;;;;;;1.30;1.20;;;;;;;22.46;43.17;101213.78;4529618;28;20128;-59
2023/04/10 02:19:47;;;;;;;1.42;1.15;;;;;;;22.44;43.26;101211.25;4530965;28;20024;-58
2023/04/10 02:21:58;;;;;;;1.20;1.10;;;;;;;22.43;43.22;101203.00;4516102;28;20041;-59
2023/04/10 02:24:08;;;;;;;1.67;1.20;;;;;;;22.43;43.05;101200.97;4533271;28;20032;-59
2023/04/10 02:26:18;;;;;;;1.30;1.10;;;;;;;22.43;43.08;101198.09;4532014;28;20060;-59
2023/04/10 02:28:31;;;;;;;1.20;1.10;;;;;;;22.43;43.15;101197.25;4531214;28;20111;-59
2023/04/10 02:30:41;;;;;;;1.77;1.35;;;;;;;22.43;43.13;101203.00;4514417;28;20120;-60
2023/04/10 02:32:55;;;;;;;2.63;1.20;;;;;;;22.42;43.49;101199.28;4532384;28;20076;-59
2023/04/10 02:35:06;;;;;;;1.27;1.17;;;;;;;22.41;43.37;101188.97;4530192;28;20488;-59
2023/04/10 02:37:16;;;;;;;1.30;1.20;;;;;;;22.39;43.10;101191.38;4522419;28;20025;-59
2023/04/10 02:39:27;;;;;;;1.85;1.20;;;;;;;22.39;43.69;101188.50;4531656;28;20052;-59
2023/04/10 02:41:39;;;;;;;1.85;1.20;;;;;;;22.40;43.41;101195.09;4533409;28;20073;-59
2023/04/10 02:43:51;;;;;;;1.67;1.23;;;;;;;22.37;43.46;101190.09;4533050;28;20142;-58
2023/04/10 02:46:06;;;;;;;1.58;1.40;;;;;;;22.37;43.34;101195.84;4523318;28;20064;-59
2023/04/10 02:48:21;;;;;;;1.50;1.10;;;;;;;22.41;43.09;101203.38;4532250;28;20163;-59
2023/04/10 02:50:37;;;;;;;1.35;1.20;;;;;;;22.29;43.32;101176.69;4517252;28;20120;-58
2023/04/10 02:52:47;;;;;;;1.40;1.30;;;;;;;22.38;43.61;101206.97;4512834;28;20109;-59
2023/04/10 02:54:57;;;;;;;1.95;1.40;;;;;;;22.36;43.38;101195.00;4529095;28;20112;-58
2023/04/10 02:57:10;;;;;;;2.17;1.23;;;;;;;22.27;43.07;101184.84;4516702;28;20270;-59
2023/04/10 02:59:21;;;;;;;2.03;1.40;;;;;;;22.37;43.12;101198.72;4513250;28;20056;-59
2023/04/10 03:01:32;;;;;;;1.20;1.00;;;;;;;22.34;43.41;101187.94;4512953;28;20048;-59
2023/04/10 03:03:43;;;;;;;1.50;1.20;;;;;;;22.36;43.00;101185.53;4514205;28;20544;-60
2023/04/10 03:05:54;;;;;;;1.35;1.10;;;;;;;22.36;43.07;101189.25;4516686;28;21374;-59
2023/04/10 03:08:12;;;;;;;1.45;1.15;;;;;;;22.36;43.19;101189.25;4520457;28;20029;-59
2023/04/10 03:10:23;;;;;;;1.40;1.30;;;;;;;22.34;43.25;101185.06;4529255;28;20049;-59
2023/04/10 03:12:33;;;;;;;1.52;1.40;;;;;;;22.39;43.40;101196.31;4522088;28;20561;-59
2023/04/10 03:14:44;;;;;;;1.52;1.42;;;;;;;22.38;43.36;101191.75;4521016;28;20037;-59
2023/04/10 03:16:54;;;;;;;1.63;1.40;;;;;;;22.37;43.42;101195.84;4517167;28;20580;-59
2023/04/10 03:19:05;;;;;;;1.58;1.20;;;;;;;22.34;42.90;101182.19;4536974;28;20385;-58
2023/04/10 03:21:16;;;;;;;1.48;1.27;;;;;;;22.36;43.00;101182.66;4535497;28;20048;-60
2023/04/10 03:23:26;;;;;;;1.60;1.27;;;;;;;22.39;43.28;101190.56;4534585;28;20530;-59
2023/04/10 03:25:36;;;;;;;1.30;1.20;;;;;;;22.35;43.50;101186.72;4519071;28;20033;-60
2023/04/10 03:27:49;;;;;;;1.60;1.23;;;;;;;22.34;43.24;101182.19;4519643;28;20601;-59
2023/04/10 03:30:01;;;;;;;1.63;1.20;;;;;;;22.38;43.25;101186.00;4532535;28;20029;-59
2023/04/10 03:32:12;;;;;;;1.60;1.30;;;;;;;22.38;43.75;101191.75;4533004;28;20572;-59
2023/04/10 03:34:22;;;;;;;1.60;1.48;;;;;;;22.38;43.11;101183.13;4526669;28;20595;-59
2023/04/10 03:36:33;;;;;;;1.85;1.50;;;;;;;22.38;43.31;101181.09;4533788;28;20072;-59
2023/04/10 03:38:43;;;;;;;1.48;1.10;;;;;;;22.35;42.96;101178.94;4518937;28;20064;-59
2023/04/10 03:40:54;;;;;;;1.70;1.40;;;;;;;22.34;43.40;101168.66;4534468;28;20040;-58
2023/04/10 03:43:06;;;;;;;1.40;1.20;;;;;;;22.35;43.12;101166.59;4525654;28;21240;-59
2023/04/10 03:45:18;;;;;;;1.35;1.10;;;;;;;22.34;43.27;101168.66;4535087;28;21704;-60
2023/04/10 03:47:33;;;;;;;1.42;1.20;;;;;;;22.36;42.99;101166.22;4517573;28;20025;-59
2023/04/10 03:49:45;;;;;;;1.83;1.20;;;;;;;22.34;43.00;101162.06;4533968;28;20055;-59
2023/04/10 03:51:56;;;;;;;1.73;1.30;;;;;;;22.36;42.95;101165.41;4524050;28;20532;-59
2023/04/10 03:54:06;;;;;;;1.88;1.33;;;;;;;22.31;43.07;101165.66;4531655;28;20076;-60
2023/04/10 03:56:17;;;;;;;1.40;1.30;;;;;;;22.33;43.49;101160.38;4532525;28;20596;-59
2023/04/10 03:58:28;;;;;;;2.38;1.50;;;;;;;22.35;43.04;101163.72;4529258;28;20508;-59
2023/04/10 04:00:40;;;;;;;1.30;1.20;;;;;;;22.35;43.51;101169.47;4517458;28;20038;-59
2023/04/10 04:03:25;;;;;;;1.50;1.20;;;;;;;22.29;43.44;101159.44;4496989;28;20425;-60
2023/04/10 04:05:49;;;;;;;1.40;1.27;;;;;;;22.34;43.27;101162.91;4499566;28;20132;-59
2023/04/10 04:08:12;;;;;;;1.98;1.20;;;;;;;22.34;43.12;101162.06;4515406;28;20600;-59
2023/04/10 04:10:42;;;;;;;1.50;1.30;;;;;;;22.35;43.46;101166.59;4532167;28;20554;-59
2023/04/10 04:12:59;;;;;;;1.50;1.17;;;;;;;22.34;42.96;101159.19;4533726;28;20076;-59
2023/04/10 04:15:22;;;;;;;2.50;1.20;;;;;;;22.34;43.00;101162.06;4532771;28;20645;-59
2023/04/10 04:17:56;;;;;;;2.53;1.30;;;;;;;22.30;43.00;101149.59;4521406;28;20103;-59
2023/04/10 04:20:18;;;;;;;2.10;1.50;;;;;;;22.33;43.17;101160.38;4534212;28;20032;-59
2023/04/10 04:22:43;;;;;;;1.80;1.30;;;;;;;22.31;43.15;101151.28;4519068;28;20064;-59
2023/04/10 04:25:14;;;;;;;1.67;1.40;;;;;;;22.31;43.26;101151.28;4492796;28;20104;-59
2023/04/10 04:27:43;;;;;;;1.55;1.17;;;;;;;22.30;42.91;101146.72;4533246;28;20045;-59
2023/04/10 04:30:20;;;;;;;3.28;1.30;;;;;;;22.29;42.92;101150.81;4532495;28;20067;-59
2023/04/10 04:32:50;;;;;;;1.38;1.27;;;;;;;22.32;43.05;101152.94;4534577;28;20572;-59
2023/04/10 04:35:36;;;;;;;2.05;1.58;;;;;;;22.18;42.97;101131.19;4490664;28;20120;-59
2023/04/10 04:38:03;;;;;;;2.05;1.50;;;;;;;22.28;43.32;101152.84;4499746;28;20535;-60
2023/04/10 04:40:34;;;;;;;1.67;1.40;;;;;;;22.31;43.41;101157.84;4516805;28;20029;-58
2023/04/10 04:43:05;;;;;;;1.35;1.20;;;;;;;22.30;42.91;101159.06;4532734;28;20049;-59
2023/04/10 04:45:39;;;;;;;1.80;1.33;;;;;;;22.29;43.42;101147.94;4511138;28;20819;-59
2023/04/10 04:47:53;;;;;;;1.40;1.20;;;;;;;22.31;43.13;101157.03;4535361;28;20030;-59
2023/04/10 04:50:22;;;;;;;2.47;1.50;;;;;;;22.30;43.27;101158.22;4530898;28;20107;-59
2023/04/10 04:52:46;;;;;;;1.60;1.33;;;;;;;22.29;43.04;101157.41;4531078;28;20144;-59
2023/04/10 04:55:09;;;;;;;2.55;1.50;;;;;;;22.31;43.20;101166.47;4522377;28;20625;-59
2023/04/10 04:57:38;;;;;;;1.88;1.50;;;;;;;22.27;43.49;101156.06;4533659;28;20612;-59
2023/04/10 05:00:01;;;;;;;1.73;1.35;;;;;;;22.27;42.94;101162.69;4522149;28;20727;-58
2023/04/10 05:02:40;;;;;;;2.00;1.52;;;;;;;22.26;43.29;101155.25;4464117;28;20053;-59
2023/04/10 05:05:17;;;;;;;2.40;1.48;;;;;;;22.30;43.42;101169.72;4529215;28;20151;-59
2023/04/10 05:07:42;;;;;;;1.45;1.30;;;;;;;22.29;43.08;101159.44;4517041;28;20592;-59
2023/04/10 05:10:15;;;;;;;1.92;1.40;;;;;;;22.26;43.47;101160.16;4524486;28;20044;-58
2023/04/10 05:12:49;;;;;;;1.95;1.48;;;;;;;22.29;42.91;101170.94;4491309;28;21043;-58
2023/04/10 05:15:16;;;;;;;1.80;1.30;;;;;;;22.26;43.25;101165.91;4529891;28;20044;-58
2023/04/10 05:17:49;;;;;;;1.33;1.23;;;;;;;22.23;43.42;101156.00;4534232;28;20566;-58
2023/04/10 05:20:26;;;;;;;2.22;1.40;;;;;;;22.27;43.17;101161.84;4530198;28;20037;-58
2023/04/10 05:23:00;;;;;;;2.53;1.63;;;;;;;22.28;43.23;101161.47;4531546;28;21237;-58
2023/04/10 05:25:32;;;;;;;1.90;1.33;;;;;;;22.27;43.27;101161.84;4533482;28;20146;-58
2023/04/10 05:28:00;;;;;;;1.63;1.52;;;;;;;22.27;43.06;101158.94;4533128;28;20143;-58
2023/04/10 05:30:23;;;;;;;1.95;1.65;;;;;;;22.27;43.11;101158.94;4533150;28;20119;-58
2023/04/10 05:32:37;;;;;;;1.80;1.30;;;;;;;22.25;43.04;101158.50;4531851;28;20050;-59
2023/04/10 05:35:05;;;;;;;1.77;1.45;;;;;;;22.27;43.03;101161.84;4534151;28;20037;-58
2023/04/10 05:37:26;;;;;;;1.92;1.42;;;;;;;22.26;43.19;101160.16;4531673;28;20047;-59
2023/04/10 05:39:44;;;;;;;1.83;1.33;;;;;;;22.20;43.04;101148.91;4531413;28;20122;-59
2023/04/10 05:42:05;;;;;;;1.58;1.40;;;;;;;22.23;43.07;101144.50;4514937;28;20037;-59
2023/04/10 05:44:29;;;;;;;2.00;1.50;;;;;;;22.26;42.99;101145.78;4531460;28;20040;-58
2023/04/10 05:46:53;;;;;;;1.63;1.42;;;;;;;22.13;42.84;101122.84;4516789;28;20125;-59
2023/04/10 05:49:26;;;;;;;2.00;1.60;;;;;;;22.25;43.27;101135.50;4531214;28;20044;-59
2023/04/10 05:51:52;;;;;;;1.50;1.30;;;;;;;22.21;43.11;101133.31;4514915;28;20045;-58
2023/04/10 05:54:21;;;;;;;1.60;1.50;;;;;;;22.22;43.27;101131.31;4531864;28;20112;-61
2023/04/10 05:56:52;;;;;;;2.10;1.40;;;;;;;22.26;42.99;101137.16;4505822;28;20045;-62
2023/04/10 05:59:31;;;;;;;1.50;1.33;;;;;;;22.23;43.21;101137.91;4523525;28;20791;-59
2023/04/10 06:02:03;;;;;;;2.00;1.35;;;;;;;22.20;42.83;101128.78;4520115;28;20502;-61
2023/04/10 06:04:14;;;;;;;2.00;1.60;;;;;;;22.25;43.26;101124.00;4522783;28;20036;-59
2023/04/10 06:06:25;;;;;;;1.85;1.48;;;;;;;22.25;42.94;101130.56;4529635;28;20033;-59
2023/04/10 06:08:35;;;;;;;2.10;1.50;;;;;;;22.23;43.35;101123.53;4515528;28;20061;-59
2023/04/10 06:10:46;;;;;;;1.42;1.33;;;;;;;22.23;43.36;101122.31;4531549;28;20115;-59
2023/04/10 06:12:56;;;;;;;1.70;1.30;;;;;;;22.26;43.23;101119.91;4532202;28;20544;-59
2023/04/10 06:15:07;;;;;;;2.15;1.40;;;;;;;22.25;43.17;101124.00;4518905;28;20144;-59
2023/04/10 06:17:20;;;;;;;1.50;1.38;;;;;;;22.22;43.27;101122.66;4529713;28;20075;-59
2023/04/10 06:19:30;;;;;;;1.90;1.50;;;;;;;22.23;43.27;101117.78;4528519;28;20037;-59
2023/04/10 06:21:40;;;;;;;2.47;1.45;;;;;;;22.23;42.91;101116.56;4530266;28;20394;-59
2023/04/10 06:23:51;;;;;;;1.85;1.38;;;;;;;22.26;43.18;101114.16;4530163;28;20061;-58
2023/04/10 06:26:02;;;;;;;2.13;1.58;;;;;;;22.25;43.11;101109.63;4530827;28;20535;-59
2023/04/10 06:28:13;;;;;;;1.90;1.50;;;;;;;22.26;43.18;101111.28;4528557;28;20137;-59
2023/04/10 06:30:25;;;;;;;1.95;1.42;;;;;;;22.21;42.85;101095.94;4531366;28;20132;-59
2023/04/10 06:32:36;;;;;;;1.80;1.50;;;;;;;22.27;42.79;101112.94;4532841;28;20598;-59
2023/04/10 06:34:46;;;;;;;2.08;1.40;;;;;;;22.19;43.17;101097.53;4529965;28;20560;-58
2023/04/10 06:36:57;;;;;;;1.63;1.23;;;;;;;22.20;43.09;101100.03;4530954;28;20170;-59
2023/04/10 06:39:07;;;;;;;2.15;1.30;;;;;;;22.23;43.04;101106.28;4514629;28;20037;-59
2023/04/10 06:41:18;;;;;;;1.65;1.40;;;;;;;22.26;43.00;101108.41;4529156;28;20035;-58
2023/04/10 06:43:29;;;;;;;1.67;1.30;;;;;;;22.26;42.67;101108.41;4532803;28;20079;-59
2023/04/10 06:45:40;;;;;;;1.80;1.30;;;;;;;22.18;43.27;101090.13;4530421;28;20096;-59
2023/04/10 06:47:50;;;;;;;1.63;1.40;;;;;;;22.20;42.79;101093.44;4531741;28;20112;-59
2023/04/10 06:50:01;;;;;;;1.88;1.30;;;;;;;22.23;42.93;101099.31;4532495;28;20072;-58
2023/04/10 06:52:11;;;;;;;1.60;1.30;;;;;;;22.25;43.17;101107.56;4534898;28;20060;-58
2023/04/10 06:54:22;;;;;;;2.35;1.40;;;;;;;22.23;42.83;101093.56;4534128;28;20071;-58
2023/04/10 06:56:32;;;;;;;1.58;1.20;;;;;;;22.23;43.37;101080.38;4535575;28;20048;-58
2023/04/10 06:58:43;;;;;;;2.10;1.30;;;;;;;22.25;43.11;101090.31;4533907;28;20064;-59
2023/04/10 07:00:53;;;;;;;1.90;1.30;;;;;;;22.27;43.05;101095.69;4532812;28;20528;-59
2023/04/10 07:03:03;;;;;;;1.50;1.23;;;;;;;22.25;43.28;101089.50;4535348;28;20063;-57
2023/04/10 07:05:15;;;;;;;1.63;1.30;;;;;;;22.25;43.21;101096.06;4534410;28;20040;-58
2023/04/10 07:07:25;;;;;;;1.50;1.25;;;;;;;22.25;42.91;101089.50;4536361;28;20036;-58
2023/04/10 07:09:36;;;;;;;2.88;1.40;;;;;;;22.21;42.89;101089.38;4534738;28;20036;-57
2023/04/10 07:11:46;;;;;;;1.27;1.13;;;;;;;22.20;42.98;101088.53;4518033;28;20322;-58
2023/04/10 07:13:57;;;;;;;1.77;1.40;;;;;;;22.22;43.20;101088.16;4532373;28;20041;-59
2023/04/10 07:16:08;;;;;;;1.30;1.20;;;;;;;22.25;43.16;101089.50;4533372;28;20036;-59
2023/04/10 07:18:19;;;;;;;1.77;1.10;;;;;;;22.25;43.00;101095.25;4533713;28;20124;-59
2023/04/10 07:20:29;;;;;;;1.35;1.25;;;;;;;22.26;43.36;101094.03;4534402;28;20572;-58
2023/04/10 07:22:40;;;;;;;1.55;1.20;;;;;;;22.23;43.10;101076.28;4534468;28;20475;-59
2023/04/10 07:24:51;;;;;;;2.13;1.30;;;;;;;22.25;43.28;101078.00;4533615;28;20045;-59
2023/04/10 07:27:02;;;;;;;1.75;1.20;;;;;;;22.23;43.12;101074.63;4535159;28;20040;-59
2023/04/10 07:29:13;;;;;;;1.38;1.20;;;;;;;22.25;43.14;101078.00;4533092;28;20102;-59
2023/04/10 07:31:23;;;;;;;1.88;1.40;;;;;;;22.26;43.44;101082.53;4533236;28;20327;-59
2023/04/10 07:33:35;;;;;;;1.60;1.17;;;;;;;22.25;43.04;101072.25;4533746;28;20075;-59
2023/04/10 07:35:45;;;;;;;1.00;0.90;;;;;;;22.23;43.28;101054.50;4533914;28;20581;-60
2023/04/10 07:37:55;;;;;;;1.73;1.40;;;;;;;22.25;43.16;101069.38;4532827;28;20036;-59
2023/04/10 07:40:07;;;;;;;1.70;1.40;;;;;;;22.20;43.19;101065.53;4533076;28;20067;-59
2023/04/10 07:42:17;;;;;;;1.70;1.23;;;;;;;22.25;43.15;101066.50;4533697;28;20500;-58
2023/04/10 07:44:28;;;;;;;1.65;1.35;;;;;;;22.25;43.15;101066.50;4532858;28;20033;-59
2023/04/10 07:46:39;;;;;;;1.52;1.00;;;;;;;22.26;43.30;101069.00;4531418;28;20057;-59
2023/04/10 07:48:50;;;;;;;1.52;1.20;;;;;;;22.23;42.88;101064.78;4534451;28;20632;-59
2023/04/10 07:51:01;;;;;;;1.38;1.17;;;;;;;22.25;43.15;101070.19;4531686;28;20418;-59
2023/04/10 07:53:11;;;;;;;1.50;1.10;;;;;;;22.26;43.41;101073.91;4534908;28;20021;-59
2023/04/10 07:55:22;;;;;;;1.95;1.17;;;;;;;22.24;43.08;101057.00;4531547;28;20251;-59
2023/04/10 07:57:32;;;;;;;1.48;1.10;;;;;;;22.21;43.09;101049.94;4532495;28;20131;-59
2023/04/10 07:59:43;;;;;;;1.20;1.00;;;;;;;22.27;43.19;101049.69;4531872;28;20034;-59
2023/04/10 08:01:54;;;;;;;1.25;1.10;;;;;;;22.24;43.19;101048.38;4517071;28;20038;-59
2023/04/10 08:04:04;;;;;;;1.70;1.08;;;;;;;22.12;43.03;101023.41;4533499;28;20033;-59
2023/04/10 08:06:15;;;;;;;1.92;1.08;;;;;;;22.26;43.26;101027.88;4534574;28;20029;-59
2023/04/10 08:08:25;;;;;;;1.15;1.05;;;;;;;22.26;43.47;101033.63;4518344;28;20041;-59
2023/04/10 08:10:37;;;;;;;1.30;1.20;;;;;;;22.27;43.49;101035.31;4531853;28;20052;-59
2023/04/10 08:12:47;;;;;;;1.30;1.10;;;;;;;22.27;43.13;101027.53;4532880;28;20033;-59
2023/04/10 08:14:58;;;;;;;1.25;1.10;;;;;;;22.25;43.38;101018.41;4515039;28;20800;-58
2023/04/10 08:17:13;;;;;;;1.10;0.90;;;;;;;22.30;43.31;101028.81;4533380;28;20029;-59
2023/04/10 08:19:23;;;;;;;1.35;1.10;;;;;;;22.30;43.76;101021.03;4536094;28;20176;-59
2023/04/10 08:21:34;;;;;;;1.30;1.20;;;;;;;22.27;43.56;101015.16;4515216;28;20049;-59
2023/04/10 08:23:47;;;;;;;1.50;1.10;;;;;;;22.34;43.37;101021.97;4533201;28;20094;-59
2023/04/10 08:25:58;;;;;;;1.23;1.08;;;;;;;22.35;43.71;101014.16;4531500;28;20041;-59
2023/04/10 08:28:08;;;;;;;1.00;0.98;;;;;;;22.39;43.48;101020.88;4532240;28;20040;-59
2023/04/10 08:30:19;;;;;;;1.17;1.00;;;;;;;22.38;43.33;101013.41;4533106;28;20382;-59
2023/04/10 08:32:29;;;;;;;1.20;1.10;;;;;;;22.35;43.46;101005.53;4532388;28;20100;-59
2023/04/10 08:34:40;;;;;;;1.10;0.85;;;;;;;22.40;43.27;101016.78;4536538;28;20040;-58
2023/04/10 08:36:50;;;;;;;1.20;1.10;;;;;;;22.44;43.51;101009.09;4532810;28;20494;-58
2023/04/10 08:39:00;;;;;;;1.85;1.00;;;;;;;22.44;43.46;101011.97;4530547;28;20503;-59
2023/04/10 08:41:15;;;;;;;1.27;1.00;;;;;;;22.13;44.05;101004.97;4520844;28;20113;-60
2023/04/10 08:43:26;;;;;;;2.08;1.88;;;;;;;21.90;30.99;101000.16;4532391;28;20048;-59
2023/04/10 08:45:36;;;;;;;2.10;1.90;;;;;;;21.84;30.24;100999.59;4520653;28;20060;-59
2023/04/10 08:47:49;;;;;;;2.10;1.90;;;;;;;21.79;29.81;100996.97;4534169;28;20463;-59
2023/04/10 08:50:09;;;;;;;1.90;1.80;;;;;;;21.75;29.96;100995.19;4532063;28;20634;-59
2023/04/10 08:52:22;;;;;;;2.35;2.15;;;;;;;21.70;30.15;100992.56;4534601;28;20048;-59
2023/04/10 08:54:36;;;;;;;2.40;2.20;;;;;;;21.67;29.46;100994.16;4531479;28;21005;-59
2023/04/10 08:56:52;;;;;;;3.30;3.00;;;;;;;21.67;29.64;100993.28;4530241;28;20056;-59
2023/04/10 08:59:02;;;;;;;2.42;2.22;;;;;;;21.60;29.06;100976.69;4531260;28;20084;-59
2023/04/10 09:01:14;;;;;;;2.30;2.10;;;;;;;21.63;29.00;100989.47;4519186;28;20044;-59
2023/04/10 09:03:26;;;;;;;2.20;2.00;;;;;;;21.63;29.31;100978.81;4530618;28;20041;-59
2023/04/10 09:05:36;;;;;;;2.20;2.00;;;;;;;21.56;29.58;100970.00;4533168;28;20911;-59
2023/04/10 09:07:47;;;;;;;2.25;1.95;;;;;;;21.62;29.33;100974.28;4531915;28;20025;-59
2023/04/10 09:09:57;;;;;;;1.70;1.60;;;;;;;21.58;29.27;100966.78;4530374;28;20091;-59
2023/04/10 09:12:08;;;;;;;1.90;1.80;;;;;;;21.60;29.45;100964.34;4532286;28;20047;-59
2023/04/10 09:14:24;;;;;;;2.10;1.90;;;;;;;21.60;29.50;100967.22;4529948;28;20115;-59
2023/04/10 09:16:35;;;;;;;2.03;1.90;;;;;;;21.61;29.59;100955.34;4530780;28;20028;-59
2023/04/10 09:18:49;;;;;;;2.65;1.90;;;;;;;21.61;29.09;100954.53;4533081;28;20071;-59
2023/04/10 09:21:07;;;;;;;1.95;1.75;;;;;;;21.51;29.15;100937.81;4530488;28;20080;-59
2023/04/10 09:23:23;;;;;;;2.00;1.67;;;;;;;21.58;29.68;100941.72;4533043;28;20044;-59
2023/04/10 09:25:37;;;;;;;2.50;2.13;;;;;;;21.61;29.62;100949.63;4531801;28;20781;-59
2023/04/10 09:27:59;;;;;;;1.83;1.70;;;;;;;21.60;29.29;100962.31;4531849;28;20610;-59
2023/04/10 09:30:30;;;;;;;2.10;1.90;;;;;;;21.60;29.36;100939.34;4531959;28;20116;-59
2023/04/10 09:32:47;;;;;;;2.20;2.00;;;;;;;21.61;29.94;100938.13;4530606;28;20572;-59
2023/04/10 09:34:58;;;;;;;2.35;2.15;;;;;;;21.55;29.71;100921.53;4532453;28;20025;-59
2023/04/10 09:37:08;;;;;;;2.10;1.90;;;;;;;21.62;29.48;100927.47;4533645;28;20041;-59
2023/04/10 09:39:19;;;;;;;2.20;2.00;;;;;;;21.60;29.63;100919.22;4535466;28;20159;-59
2023/04/10 09:41:30;;;;;;;1.70;1.60;;;;;;;21.55;30.02;100916.63;4522467;28;20136;-59
2023/04/10 09:43:42;;;;;;;1.92;1.73;;;;;;;21.60;29.73;100919.22;4531055;28;20025;-59
2023/04/10 09:45:58;;;;;;;2.13;1.92;;;;;;;21.61;29.14;100920.06;4529468;28;20643;-61
2023/04/10 09:48:08;;;;;;;2.30;2.10;;;;;;;21.61;29.47;100922.94;4532181;28;20042;-59
2023/04/10 09:50:33;;;;;;;2.20;2.00;;;;;;;21.62;29.48;100925.44;4531264;28;20072;-63
2023/04/10 09:52:43;;;;;;;1.63;1.52;;;;;;;21.61;29.35;100902.84;4514276;28;20041;-58
2023/04/10 09:54:56;;;;;;;2.50;2.30;;;;;;;21.64;29.59;100907.84;4533352;28;20036;-59
2023/04/10 09:57:07;;;;;;;2.60;2.40;;;;;;;21.63;28.77;100904.13;4532413;28;20123;-61
2023/04/10 09:59:18;;;;;;;2.80;2.50;;;;;;;21.63;29.18;100895.50;4533521;28;20514;-59
2023/04/10 10:01:33;;;;;;;2.10;1.90;;;;;;;21.66;29.57;100889.03;4533322;28;20041;-59
2023/04/10 10:03:45;;;;;;;2.15;1.95;;;;;;;21.68;29.19;100891.53;4530024;28;20040;-59
2023/04/10 10:05:55;;;;;;;1.80;1.70;;;;;;;21.65;29.03;100875.03;4529902;28;20036;-59
2023/04/10 10:08:09;;;;;;;1.90;1.80;;;;;;;21.69;29.25;100878.84;4532644;28;20051;-59
2023/04/10 10:10:20;;;;;;;2.10;1.90;;;;;;;21.65;28.95;100864.38;4530866;28;20083;-60
2023/04/10 10:12:43;;;;;;;2.05;1.85;;;;;;;21.68;29.42;100875.13;4533234;28;20098;-59
2023/04/10 10:15:00;;;;;;;1.88;1.77;;;;;;;21.70;29.25;100874.78;4531746;28;20034;-59
2023/04/10 10:17:16;;;;;;;1.92;1.73;;;;;;;21.74;28.81;100865.03;4530067;28;20033;-59
2023/04/10 10:19:43;;;;;;;2.85;1.98;;;;;;;21.71;29.51;100844.81;4532569;28;21097;-58
2023/04/10 10:21:54;;;;;;;2.28;2.08;;;;;;;21.76;28.87;100850.34;4531845;28;20048;-59
2023/04/10 10:24:08;;;;;;;2.00;1.80;;;;;;;21.76;29.35;100842.56;4533305;28;20059;-59
2023/04/10 10:26:22;;;;;;;1.90;1.80;;;;;;;21.76;29.34;100839.69;4529880;28;20550;-59
2023/04/10 10:28:33;;;;;;;2.53;2.00;;;;;;;21.78;29.07;100839.31;4531510;28;20036;-59
2023/04/10 10:30:44;;;;;;;2.97;1.55;;;;;;;21.78;28.72;100839.31;4530331;28;20156;-59